sensor_id;sensor_type;location;lat;lon;timestamp;P1;durP1;ratioP1;P2;durP2;ratioP2
4428;SDS011;2227;47.810;8.810;2022-09-25T04:31:26;6.22;;;3.17;;
4428;SDS011;2227;47.810;8.810;2022-09-25T04:33:54;5.05;;;2.88;;
4428;SDS011;2227;47.810;8.810;2022-09-25T04:36:20;4.75;;;2.92;;
4428;SDS011;2227;47.810;8.810;2022-09-25T04:38:47;5.88;;;2.70;;
4428;SDS011;2227;47.810;8.810;2022-09-25T04:41:15;4.57;;;2.90;;
4428;SDS011;2227;47.810;8.810;2022-09-25T04:43:44;4.95;;;2.75;;
4428;SDS011;2227;47.810;8.810;2022-09-25T04:46:11;5.15;;;3.33;;
4428;SDS011;2227;47.810;8.810;2022-09-25T04:48:46;5.55;;;3.40;;
4428;SDS011;2227;47.810;8.810;2022-09-25T04:51:13;4.38;;;2.97;;
4428;SDS011;2227;47.810;8.810;2022-09-25T04:53:41;4.80;;;3.17;;
4428;SDS011;2227;47.810;8.810;2022-09-25T04:56:08;5.50;;;3.75;;
4428;SDS011;2227;47.810;8.810;2022-09-25T04:58:44;6.47;;;4.28;;
4428;SDS011;2227;47.810;8.810;2022-09-25T05:01:13;6.43;;;3.80;;
4428;SDS011;2227;47.810;8.810;2022-09-25T05:03:40;8.10;;;4.75;;
4428;SDS011;2227;47.810;8.810;2022-09-25T05:06:08;7.32;;;4.38;;
4428;SDS011;2227;47.810;8.810;2022-09-25T05:08:34;7.38;;;4.15;;
4428;SDS011;2227;47.810;8.810;2022-09-25T05:11:01;6.15;;;3.97;;
4428;SDS011;2227;47.810;8.810;2022-09-25T05:13:29;9.32;;;4.97;;
4428;SDS011;2227;47.810;8.810;2022-09-25T05:15:55;8.60;;;5.07;;
4428;SDS011;2227;47.810;8.810;2022-09-25T05:18:23;9.00;;;5.65;;
4428;SDS011;2227;47.810;8.810;2022-09-25T05:20:51;9.88;;;6.15;;
4428;SDS011;2227;47.810;8.810;2022-09-25T05:23:22;6.80;;;4.10;;
4428;SDS011;2227;47.810;8.810;2022-09-25T05:25:52;5.60;;;3.00;;
4428;SDS011;2227;47.810;8.810;2022-09-25T05:28:20;4.35;;;2.28;;
4428;SDS011;2227;47.810;8.810;2022-09-25T05:30:48;4.28;;;2.83;;
4428;SDS011;2227;47.810;8.810;2022-09-25T05:33:15;4.68;;;2.42;;
4428;SDS011;2227;47.810;8.810;2022-09-25T05:35:43;4.78;;;2.75;;
4428;SDS011;2227;47.810;8.810;2022-09-25T05:38:10;3.83;;;2.47;;
4428;SDS011;2227;47.810;8.810;2022-09-25T05:40:37;4.43;;;2.63;;
4428;SDS011;2227;47.810;8.810;2022-09-25T05:43:04;4.45;;;2.60;;
4428;SDS011;2227;47.810;8.810;2022-09-25T05:45:31;6.93;;;2.58;;
4428;SDS011;2227;47.810;8.810;2022-09-25T05:48:04;4.97;;;3.00;;
4428;SDS011;2227;47.810;8.810;2022-09-25T05:50:32;4.10;;;2.50;;
4428;SDS011;2227;47.810;8.810;2022-09-25T05:53:01;4.15;;;2.58;;
4428;SDS011;2227;47.810;8.810;2022-09-25T05:55:29;6.00;;;2.58;;
4428;SDS011;2227;47.810;8.810;2022-09-25T05:58:00;4.88;;;2.90;;
4428;SDS011;2227;47.810;8.810;2022-09-25T06:00:28;4.75;;;2.90;;
4428;SDS011;2227;47.810;8.810;2022-09-25T06:02:58;5.38;;;3.25;;
4428;SDS011;2227;47.810;8.810;2022-09-25T06:05:26;7.30;;;3.17;;
4428;SDS011;2227;47.810;8.810;2022-09-25T06:07:53;4.97;;;3.15;;
4428;SDS011;2227;47.810;8.810;2022-09-25T06:10:20;6.28;;;3.58;;
4428;SDS011;2227;47.810;8.810;2022-09-25T06:12:48;6.07;;;4.05;;
4428;SDS011;2227;47.810;8.810;2022-09-25T06:15:14;5.88;;;3.90;;
4428;SDS011;2227;47.810;8.810;2022-09-25T06:17:41;8.57;;;5.00;;
4428;SDS011;2227;47.810;8.810;2022-09-25T06:20:08;10.38;;;5.80;;
4428;SDS011;2227;47.810;8.810;2022-09-25T06:22:41;8.00;;;5.35;;
4428;SDS011;2227;47.810;8.810;2022-09-25T06:25:09;7.20;;;4.95;;
4428;SDS011;2227;47.810;8.810;2022-09-25T06:27:36;9.65;;;6.07;;
4428;SDS011;2227;47.810;8.810;2022-09-25T06:30:03;10.10;;;6.43;;
4428;SDS011;2227;47.810;8.810;2022-09-25T06:32:31;8.30;;;5.18;;
4428;SDS011;2227;47.810;8.810;2022-09-25T06:34:57;8.43;;;4.80;;
4428;SDS011;2227;47.810;8.810;2022-09-25T06:37:24;6.35;;;4.00;;
4428;SDS011;2227;47.810;8.810;2022-09-25T06:39:50;5.57;;;2.95;;
4428;SDS011;2227;47.810;8.810;2022-09-25T06:42:17;4.43;;;3.00;;
4428;SDS011;2227;47.810;8.810;2022-09-25T06:44:44;4.53;;;3.08;;
4428;SDS011;2227;47.810;8.810;2022-09-25T06:47:10;5.57;;;2.95;;
4428;SDS011;2227;47.810;8.810;2022-09-25T06:49:44;4.30;;;2.83;;
4428;SDS011;2227;47.810;8.810;2022-09-25T06:52:11;4.90;;;2.83;;
4428;SDS011;2227;47.810;8.810;2022-09-25T06:54:38;4.80;;;2.78;;
4428;SDS011;2227;47.810;8.810;2022-09-25T06:57:09;6.28;;;3.10;;
4428;SDS011;2227;47.810;8.810;2022-09-25T06:59:38;5.55;;;3.47;;
4428;SDS011;2227;47.810;8.810;2022-09-25T07:02:05;6.47;;;3.58;;
4428;SDS011;2227;47.810;8.810;2022-09-25T07:04:52;5.13;;;3.55;;
4428;SDS011;2227;47.810;8.810;2022-09-25T07:07:19;6.28;;;4.25;;
4428;SDS011;2227;47.810;8.810;2022-09-25T07:09:46;6.22;;;4.32;;
4428;SDS011;2227;47.810;8.810;2022-09-25T07:12:13;6.60;;;4.22;;
4428;SDS011;2227;47.810;8.810;2022-09-25T07:14:43;8.20;;;5.65;;
4428;SDS011;2227;47.810;8.810;2022-09-25T07:17:12;9.18;;;6.50;;
4428;SDS011;2227;47.810;8.810;2022-09-25T07:19:39;10.43;;;6.03;;
4428;SDS011;2227;47.810;8.810;2022-09-25T07:22:06;7.10;;;4.85;;
4428;SDS011;2227;47.810;8.810;2022-09-25T07:24:32;8.05;;;4.57;;
4428;SDS011;2227;47.810;8.810;2022-09-25T07:26:59;6.03;;;3.85;;
4428;SDS011;2227;47.810;8.810;2022-09-25T07:29:26;5.88;;;3.85;;
4428;SDS011;2227;47.810;8.810;2022-09-25T07:31:53;6.20;;;4.22;;
4428;SDS011;2227;47.810;8.810;2022-09-25T07:34:20;6.05;;;3.95;;
4428;SDS011;2227;47.810;8.810;2022-09-25T07:36:46;6.47;;;4.00;;
4428;SDS011;2227;47.810;8.810;2022-09-25T07:39:13;6.05;;;3.88;;
4428;SDS011;2227;47.810;8.810;2022-09-25T07:41:43;6.10;;;3.63;;
4428;SDS011;2227;47.810;8.810;2022-09-25T07:44:11;7.47;;;4.38;;
4428;SDS011;2227;47.810;8.810;2022-09-25T07:46:57;7.00;;;4.45;;
4428;SDS011;2227;47.810;8.810;2022-09-25T07:49:26;8.80;;;5.15;;
4428;SDS011;2227;47.810;8.810;2022-09-25T07:51:54;8.85;;;4.90;;
4428;SDS011;2227;47.810;8.810;2022-09-25T07:54:20;6.97;;;4.55;;
4428;SDS011;2227;47.810;8.810;2022-09-25T07:56:47;6.85;;;4.90;;
4428;SDS011;2227;47.810;8.810;2022-09-25T07:59:14;8.23;;;5.13;;
4428;SDS011;2227;47.810;8.810;2022-09-25T08:01:41;8.73;;;4.53;;
4428;SDS011;2227;47.810;8.810;2022-09-25T08:04:11;7.78;;;5.20;;
4428;SDS011;2227;47.810;8.810;2022-09-25T08:06:38;7.35;;;4.50;;
4428;SDS011;2227;47.810;8.810;2022-09-25T08:09:05;7.43;;;4.75;;
4428;SDS011;2227;47.810;8.810;2022-09-25T08:11:36;8.10;;;5.18;;
4428;SDS011;2227;47.810;8.810;2022-09-25T08:14:03;7.43;;;5.10;;
4428;SDS011;2227;47.810;8.810;2022-09-25T08:16:30;7.95;;;4.82;;
4428;SDS011;2227;47.810;8.810;2022-09-25T08:18:56;9.43;;;5.60;;
4428;SDS011;2227;47.810;8.810;2022-09-25T08:21:23;8.05;;;5.10;;
4428;SDS011;2227;47.810;8.810;2022-09-25T08:23:50;8.27;;;5.72;;
4428;SDS011;2227;47.810;8.810;2022-09-25T08:26:18;9.15;;;6.30;;
4428;SDS011;2227;47.810;8.810;2022-09-25T08:28:46;8.00;;;6.05;;
4428;SDS011;2227;47.810;8.810;2022-09-25T08:31:13;9.52;;;6.03;;
4428;SDS011;2227;47.810;8.810;2022-09-25T08:33:47;9.10;;;6.10;;
4428;SDS011;2227;47.810;8.810;2022-09-25T08:36:15;9.13;;;5.97;;
4428;SDS011;2227;47.810;8.810;2022-09-25T08:38:43;7.00;;;4.90;;
4428;SDS011;2227;47.810;8.810;2022-09-25T08:41:13;8.18;;;5.82;;
4428;SDS011;2227;47.810;8.810;2022-09-25T08:44:05;9.55;;;6.13;;
4428;SDS011;2227;47.810;8.810;2022-09-25T08:46:54;11.00;;;6.20;;
4428;SDS011;2227;47.810;8.810;2022-09-25T08:49:58;9.93;;;5.95;;
4428;SDS011;2227;47.810;8.810;2022-09-25T08:52:26;9.68;;;5.47;;
4428;SDS011;2227;47.810;8.810;2022-09-25T08:54:52;7.57;;;5.32;;
4428;SDS011;2227;47.810;8.810;2022-09-25T08:57:23;9.10;;;5.63;;
4428;SDS011;2227;47.810;8.810;2022-09-25T09:00:04;9.35;;;5.70;;
4428;SDS011;2227;47.810;8.810;2022-09-25T09:02:40;9.45;;;5.97;;
4428;SDS011;2227;47.810;8.810;2022-09-25T09:05:21;8.27;;;5.03;;
4428;SDS011;2227;47.810;8.810;2022-09-25T09:07:54;8.15;;;5.75;;
4428;SDS011;2227;47.810;8.810;2022-09-25T09:10:43;10.35;;;6.60;;
4428;SDS011;2227;47.810;8.810;2022-09-25T09:18:27;7.15;;;5.05;;
4428;SDS011;2227;47.810;8.810;2022-09-25T09:29:37;8.35;;;5.28;;
4428;SDS011;2227;47.810;8.810;2022-09-25T09:49:25;8.57;;;4.85;;
4428;SDS011;2227;47.810;8.810;2022-09-25T09:52:15;9.05;;;5.25;;
4428;SDS011;2227;47.810;8.810;2022-09-25T09:57:24;7.78;;;5.43;;
4428;SDS011;2227;47.810;8.810;2022-09-25T10:00:26;7.97;;;4.82;;
4428;SDS011;2227;47.810;8.810;2022-09-25T10:02:56;8.45;;;4.93;;
4428;SDS011;2227;47.810;8.810;2022-09-25T10:05:31;6.47;;;4.53;;
4428;SDS011;2227;47.810;8.810;2022-09-25T10:08:08;6.82;;;4.45;;
4428;SDS011;2227;47.810;8.810;2022-09-25T10:10:37;7.20;;;4.53;;
4428;SDS011;2227;47.810;8.810;2022-09-25T10:13:09;7.63;;;4.70;;
4428;SDS011;2227;47.810;8.810;2022-09-25T10:15:59;6.73;;;4.87;;
4428;SDS011;2227;47.810;8.810;2022-09-25T10:18:28;7.65;;;4.28;;
4428;SDS011;2227;47.810;8.810;2022-09-25T10:21:14;5.90;;;3.70;;
4428;SDS011;2227;47.810;8.810;2022-09-25T10:23:51;5.45;;;3.75;;
4428;SDS011;2227;47.810;8.810;2022-09-25T10:26:29;6.90;;;4.28;;
4428;SDS011;2227;47.810;8.810;2022-09-25T10:28:57;7.75;;;4.43;;
4428;SDS011;2227;47.810;8.810;2022-09-25T10:31:39;5.13;;;3.33;;
4428;SDS011;2227;47.810;8.810;2022-09-25T10:36:42;4.13;;;3.10;;
4428;SDS011;2227;47.810;8.810;2022-09-25T10:42:30;5.32;;;3.38;;
4428;SDS011;2227;47.810;8.810;2022-09-25T10:44:58;4.70;;;3.05;;
4428;SDS011;2227;47.810;8.810;2022-09-25T10:47:31;4.55;;;2.90;;
4428;SDS011;2227;47.810;8.810;2022-09-25T10:55:22;5.85;;;3.42;;
4428;SDS011;2227;47.810;8.810;2022-09-25T10:57:59;6.68;;;4.43;;
4428;SDS011;2227;47.810;8.810;2022-09-25T11:00:28;5.57;;;4.28;;
4428;SDS011;2227;47.810;8.810;2022-09-25T11:03:02;5.30;;;3.97;;
4428;SDS011;2227;47.810;8.810;2022-09-25T11:05:32;5.30;;;3.88;;
4428;SDS011;2227;47.810;8.810;2022-09-25T11:08:04;5.85;;;3.83;;
4428;SDS011;2227;47.810;8.810;2022-09-25T11:10:33;6.03;;;4.25;;
4428;SDS011;2227;47.810;8.810;2022-09-25T11:13:19;5.68;;;4.50;;
4428;SDS011;2227;47.810;8.810;2022-09-25T11:15:59;4.93;;;3.90;;
4428;SDS011;2227;47.810;8.810;2022-09-25T11:21:34;4.97;;;3.88;;
4428;SDS011;2227;47.810;8.810;2022-09-25T11:27:47;5.28;;;3.40;;
4428;SDS011;2227;47.810;8.810;2022-09-25T11:30:16;4.13;;;2.90;;
4428;SDS011;2227;47.810;8.810;2022-09-25T11:35:32;5.53;;;3.15;;
4428;SDS011;2227;47.810;8.810;2022-09-25T11:41:35;4.53;;;3.30;;
4428;SDS011;2227;47.810;8.810;2022-09-25T11:47:17;5.30;;;3.40;;
4428;SDS011;2227;47.810;8.810;2022-09-25T11:49:49;4.85;;;3.10;;
4428;SDS011;2227;47.810;8.810;2022-09-25T11:52:19;5.53;;;3.13;;
4428;SDS011;2227;47.810;8.810;2022-09-25T12:00:13;4.85;;;2.88;;
4428;SDS011;2227;47.810;8.810;2022-09-25T12:03:01;5.18;;;3.30;;
4428;SDS011;2227;47.810;8.810;2022-09-25T12:06:23;4.90;;;3.35;;
4428;SDS011;2227;47.810;8.810;2022-09-25T12:13:52;5.53;;;3.40;;
4428;SDS011;2227;47.810;8.810;2022-09-25T12:19:02;5.18;;;3.50;;
4428;SDS011;2227;47.810;8.810;2022-09-25T12:21:33;5.60;;;3.38;;
4428;SDS011;2227;47.810;8.810;2022-09-25T12:27:11;5.60;;;3.40;;
4428;SDS011;2227;47.810;8.810;2022-09-25T12:29:54;5.05;;;2.97;;
4428;SDS011;2227;47.810;8.810;2022-09-25T12:35:41;4.90;;;3.15;;
4428;SDS011;2227;47.810;8.810;2022-09-25T12:40:55;5.45;;;2.97;;
4428;SDS011;2227;47.810;8.810;2022-09-25T12:46:29;3.95;;;2.65;;
4428;SDS011;2227;47.810;8.810;2022-09-25T12:49:11;5.82;;;3.85;;
4428;SDS011;2227;47.810;8.810;2022-09-25T12:51:47;5.30;;;2.97;;
4428;SDS011;2227;47.810;8.810;2022-09-25T12:59:18;5.25;;;3.30;;
4428;SDS011;2227;47.810;8.810;2022-09-25T13:02:15;7.30;;;3.65;;
4428;SDS011;2227;47.810;8.810;2022-09-25T13:07:53;5.57;;;3.42;;
4428;SDS011;2227;47.810;8.810;2022-09-25T13:10:47;4.28;;;3.17;;
4428;SDS011;2227;47.810;8.810;2022-09-25T13:13:19;4.22;;;2.78;;
4428;SDS011;2227;47.810;8.810;2022-09-25T13:15:51;4.22;;;2.97;;
4428;SDS011;2227;47.810;8.810;2022-09-25T13:18:21;4.15;;;2.78;;
4428;SDS011;2227;47.810;8.810;2022-09-25T13:20:54;5.55;;;2.70;;
4428;SDS011;2227;47.810;8.810;2022-09-25T13:25:53;5.72;;;3.15;;
4428;SDS011;2227;47.810;8.810;2022-09-25T13:28:32;5.47;;;4.63;;
4428;SDS011;2227;47.810;8.810;2022-09-25T13:31:08;4.93;;;3.38;;
4428;SDS011;2227;47.810;8.810;2022-09-25T13:33:51;6.05;;;4.10;;
4428;SDS011;2227;47.810;8.810;2022-09-25T13:38:53;3.92;;;2.90;;
4428;SDS011;2227;47.810;8.810;2022-09-25T13:47:52;4.18;;;3.15;;
4428;SDS011;2227;47.810;8.810;2022-09-25T13:58:11;3.90;;;2.55;;
4428;SDS011;2227;47.810;8.810;2022-09-25T14:03:38;4.68;;;2.30;;
4428;SDS011;2227;47.810;8.810;2022-09-25T14:06:18;4.88;;;3.10;;
4428;SDS011;2227;47.810;8.810;2022-09-25T14:08:49;4.15;;;2.65;;
4428;SDS011;2227;47.810;8.810;2022-09-25T14:11:20;5.63;;;2.88;;
4428;SDS011;2227;47.810;8.810;2022-09-25T14:13:52;4.50;;;2.85;;
4428;SDS011;2227;47.810;8.810;2022-09-25T14:18:51;5.35;;;2.97;;
4428;SDS011;2227;47.810;8.810;2022-09-25T14:21:20;4.53;;;2.60;;
4428;SDS011;2227;47.810;8.810;2022-09-25T14:23:51;4.63;;;2.67;;
4428;SDS011;2227;47.810;8.810;2022-09-25T14:26:23;4.93;;;2.78;;
4428;SDS011;2227;47.810;8.810;2022-09-25T14:28:53;4.40;;;3.08;;
4428;SDS011;2227;47.810;8.810;2022-09-25T14:39:03;3.40;;;2.17;;
4428;SDS011;2227;47.810;8.810;2022-09-25T14:44:34;4.00;;;2.53;;
4428;SDS011;2227;47.810;8.810;2022-09-25T14:47:22;4.13;;;2.42;;
4428;SDS011;2227;47.810;8.810;2022-09-25T14:49:58;3.88;;;2.38;;
4428;SDS011;2227;47.810;8.810;2022-09-25T14:52:26;3.67;;;2.20;;
4428;SDS011;2227;47.810;8.810;2022-09-25T14:54:57;3.67;;;2.22;;
4428;SDS011;2227;47.810;8.810;2022-09-25T14:57:27;4.70;;;2.40;;
4428;SDS011;2227;47.810;8.810;2022-09-25T15:00:01;4.45;;;2.35;;
4428;SDS011;2227;47.810;8.810;2022-09-25T15:02:34;3.40;;;2.50;;
4428;SDS011;2227;47.810;8.810;2022-09-25T15:07:53;4.32;;;2.97;;
4428;SDS011;2227;47.810;8.810;2022-09-25T15:10:29;4.00;;;2.80;;
4428;SDS011;2227;47.810;8.810;2022-09-25T15:13:12;4.68;;;2.60;;
4428;SDS011;2227;47.810;8.810;2022-09-25T15:15:47;3.50;;;2.40;;
4428;SDS011;2227;47.810;8.810;2022-09-25T15:18:37;3.70;;;2.25;;
4428;SDS011;2227;47.810;8.810;2022-09-25T15:21:13;4.43;;;3.05;;
4428;SDS011;2227;47.810;8.810;2022-09-25T15:23:45;3.83;;;2.10;;
4428;SDS011;2227;47.810;8.810;2022-09-25T15:26:14;4.93;;;2.60;;
4428;SDS011;2227;47.810;8.810;2022-09-25T15:28:43;4.15;;;2.80;;
4428;SDS011;2227;47.810;8.810;2022-09-25T15:31:11;3.85;;;2.42;;
4428;SDS011;2227;47.810;8.810;2022-09-25T15:33:39;3.85;;;2.63;;
4428;SDS011;2227;47.810;8.810;2022-09-25T15:36:17;5.30;;;2.70;;
4428;SDS011;2227;47.810;8.810;2022-09-25T15:38:54;4.72;;;2.83;;
4428;SDS011;2227;47.810;8.810;2022-09-25T15:41:26;8.52;;;4.55;;
4428;SDS011;2227;47.810;8.810;2022-09-25T15:44:08;4.32;;;2.65;;
4428;SDS011;2227;47.810;8.810;2022-09-25T15:46:53;3.72;;;2.60;;
4428;SDS011;2227;47.810;8.810;2022-09-25T15:49:25;4.53;;;2.78;;
4428;SDS011;2227;47.810;8.810;2022-09-25T15:54:47;7.93;;;5.03;;
4428;SDS011;2227;47.810;8.810;2022-09-25T15:57:15;9.40;;;6.57;;
4428;SDS011;2227;47.810;8.810;2022-09-25T15:59:49;8.20;;;5.63;;
4428;SDS011;2227;47.810;8.810;2022-09-25T16:02:37;6.80;;;4.70;;
4428;SDS011;2227;47.810;8.810;2022-09-25T16:05:31;11.15;;;7.50;;
4428;SDS011;2227;47.810;8.810;2022-09-25T16:11:02;6.00;;;3.92;;
4428;SDS011;2227;47.810;8.810;2022-09-25T16:13:47;5.18;;;3.45;;
4428;SDS011;2227;47.810;8.810;2022-09-25T16:16:25;5.45;;;3.03;;
4428;SDS011;2227;47.810;8.810;2022-09-25T16:21:51;6.18;;;3.60;;
4428;SDS011;2227;47.810;8.810;2022-09-25T16:24:20;6.00;;;3.60;;
4428;SDS011;2227;47.810;8.810;2022-09-25T16:27:01;5.93;;;4.13;;
4428;SDS011;2227;47.810;8.810;2022-09-25T16:29:30;7.43;;;5.32;;
4428;SDS011;2227;47.810;8.810;2022-09-25T16:32:00;7.30;;;5.10;;
4428;SDS011;2227;47.810;8.810;2022-09-25T16:34:39;7.30;;;5.47;;
4428;SDS011;2227;47.810;8.810;2022-09-25T16:37:07;8.00;;;5.45;;
4428;SDS011;2227;47.810;8.810;2022-09-25T16:40:06;7.28;;;5.38;;
4428;SDS011;2227;47.810;8.810;2022-09-25T16:42:33;8.10;;;5.47;;
4428;SDS011;2227;47.810;8.810;2022-09-25T16:45:18;6.20;;;4.65;;
4428;SDS011;2227;47.810;8.810;2022-09-25T16:47:49;7.00;;;5.05;;
4428;SDS011;2227;47.810;8.810;2022-09-25T16:50:17;7.85;;;5.03;;
4428;SDS011;2227;47.810;8.810;2022-09-25T16:52:45;7.85;;;5.43;;
4428;SDS011;2227;47.810;8.810;2022-09-25T16:55:18;8.02;;;5.38;;
4428;SDS011;2227;47.810;8.810;2022-09-25T16:57:54;8.35;;;5.88;;
4428;SDS011;2227;47.810;8.810;2022-09-25T17:00:23;9.15;;;5.90;;
4428;SDS011;2227;47.810;8.810;2022-09-25T17:02:51;8.27;;;5.50;;
4428;SDS011;2227;47.810;8.810;2022-09-25T17:05:23;8.35;;;5.78;;
4428;SDS011;2227;47.810;8.810;2022-09-25T17:07:53;8.60;;;6.30;;
4428;SDS011;2227;47.810;8.810;2022-09-25T17:10:23;8.43;;;5.82;;
4428;SDS011;2227;47.810;8.810;2022-09-25T17:12:51;8.43;;;6.13;;
4428;SDS011;2227;47.810;8.810;2022-09-25T17:15:20;9.77;;;6.57;;
4428;SDS011;2227;47.810;8.810;2022-09-25T17:17:55;9.13;;;6.90;;
4428;SDS011;2227;47.810;8.810;2022-09-25T17:20:22;8.27;;;6.40;;
4428;SDS011;2227;47.810;8.810;2022-09-25T17:22:50;9.82;;;7.30;;
4428;SDS011;2227;47.810;8.810;2022-09-25T17:28:06;10.15;;;7.28;;
4428;SDS011;2227;47.810;8.810;2022-09-25T17:30:35;9.77;;;5.90;;
4428;SDS011;2227;47.810;8.810;2022-09-25T17:33:02;8.60;;;6.40;;
4428;SDS011;2227;47.810;8.810;2022-09-25T17:35:51;10.65;;;6.90;;
4428;SDS011;2227;47.810;8.810;2022-09-25T17:40:53;9.93;;;6.95;;
4428;SDS011;2227;47.810;8.810;2022-09-25T17:43:26;9.55;;;6.65;;
4428;SDS011;2227;47.810;8.810;2022-09-25T17:45:54;8.70;;;6.40;;
4428;SDS011;2227;47.810;8.810;2022-09-25T17:48:23;8.05;;;6.20;;
4428;SDS011;2227;47.810;8.810;2022-09-25T17:50:56;8.68;;;5.45;;
4428;SDS011;2227;47.810;8.810;2022-09-25T17:53:26;6.63;;;4.82;;
4428;SDS011;2227;47.810;8.810;2022-09-25T17:55:55;7.22;;;4.97;;
4428;SDS011;2227;47.810;8.810;2022-09-25T17:58:23;5.55;;;4.00;;
4428;SDS011;2227;47.810;8.810;2022-09-25T18:00:51;6.00;;;3.60;;
4428;SDS011;2227;47.810;8.810;2022-09-25T18:03:18;5.57;;;2.97;;
4428;SDS011;2227;47.810;8.810;2022-09-25T18:05:46;4.32;;;3.10;;
4428;SDS011;2227;47.810;8.810;2022-09-25T18:08:13;4.72;;;2.67;;
4428;SDS011;2227;47.810;8.810;2022-09-25T18:10:40;5.30;;;2.90;;
4428;SDS011;2227;47.810;8.810;2022-09-25T18:13:09;5.75;;;3.20;;
4428;SDS011;2227;47.810;8.810;2022-09-25T18:18:42;4.00;;;2.58;;
4428;SDS011;2227;47.810;8.810;2022-09-25T18:21:27;3.53;;;2.20;;
4428;SDS011;2227;47.810;8.810;2022-09-25T18:24:13;3.88;;;2.38;;
4428;SDS011;2227;47.810;8.810;2022-09-25T18:26:40;5.40;;;2.70;;
4428;SDS011;2227;47.810;8.810;2022-09-25T18:29:11;4.00;;;2.10;;
4428;SDS011;2227;47.810;8.810;2022-09-25T18:31:40;3.75;;;2.50;;
4428;SDS011;2227;47.810;8.810;2022-09-25T18:34:07;4.07;;;2.88;;
4428;SDS011;2227;47.810;8.810;2022-09-25T18:36:33;3.97;;;2.50;;
4428;SDS011;2227;47.810;8.810;2022-09-25T18:39:00;4.45;;;2.67;;
4428;SDS011;2227;47.810;8.810;2022-09-25T18:41:27;4.88;;;2.80;;
4428;SDS011;2227;47.810;8.810;2022-09-25T18:43:54;4.20;;;2.85;;
4428;SDS011;2227;47.810;8.810;2022-09-25T18:46:21;5.05;;;3.00;;
4428;SDS011;2227;47.810;8.810;2022-09-25T18:48:48;5.22;;;2.88;;
4428;SDS011;2227;47.810;8.810;2022-09-25T18:51:14;4.05;;;2.50;;
4428;SDS011;2227;47.810;8.810;2022-09-25T18:53:42;4.30;;;2.55;;
4428;SDS011;2227;47.810;8.810;2022-09-25T18:56:08;4.50;;;2.60;;
4428;SDS011;2227;47.810;8.810;2022-09-25T18:58:35;4.10;;;2.75;;
4428;SDS011;2227;47.810;8.810;2022-09-25T19:01:04;4.65;;;2.90;;
4428;SDS011;2227;47.810;8.810;2022-09-25T19:03:31;4.63;;;2.60;;
4428;SDS011;2227;47.810;8.810;2022-09-25T19:08:31;4.15;;;2.40;;
4428;SDS011;2227;47.810;8.810;2022-09-25T19:10:59;4.53;;;2.55;;
4428;SDS011;2227;47.810;8.810;2022-09-25T19:13:26;4.70;;;2.97;;
4428;SDS011;2227;47.810;8.810;2022-09-25T19:15:54;3.50;;;2.33;;
4428;SDS011;2227;47.810;8.810;2022-09-25T19:18:21;4.65;;;2.90;;
4428;SDS011;2227;47.810;8.810;2022-09-25T19:20:49;4.28;;;2.67;;
4428;SDS011;2227;47.810;8.810;2022-09-25T19:23:21;4.70;;;2.97;;
4428;SDS011;2227;47.810;8.810;2022-09-25T19:25:56;4.78;;;3.10;;
4428;SDS011;2227;47.810;8.810;2022-09-25T19:28:24;4.53;;;3.10;;
4428;SDS011;2227;47.810;8.810;2022-09-25T19:30:55;4.65;;;3.00;;
4428;SDS011;2227;47.810;8.810;2022-09-25T19:33:27;6.70;;;3.00;;
4428;SDS011;2227;47.810;8.810;2022-09-25T19:35:59;4.68;;;2.85;;
4428;SDS011;2227;47.810;8.810;2022-09-25T19:38:34;4.85;;;3.15;;
4428;SDS011;2227;47.810;8.810;2022-09-25T19:41:03;4.93;;;3.00;;
4428;SDS011;2227;47.810;8.810;2022-09-25T19:43:35;5.57;;;3.05;;
4428;SDS011;2227;47.810;8.810;2022-09-25T19:46:02;4.97;;;2.95;;
4428;SDS011;2227;47.810;8.810;2022-09-25T19:48:29;5.13;;;3.53;;
4428;SDS011;2227;47.810;8.810;2022-09-25T19:50:57;4.60;;;3.10;;
4428;SDS011;2227;47.810;8.810;2022-09-25T19:53:24;5.85;;;3.70;;
4428;SDS011;2227;47.810;8.810;2022-09-25T19:55:52;6.35;;;4.35;;
4428;SDS011;2227;47.810;8.810;2022-09-25T19:58:19;6.20;;;3.97;;
4428;SDS011;2227;47.810;8.810;2022-09-25T20:00:49;7.10;;;4.90;;
4428;SDS011;2227;47.810;8.810;2022-09-25T20:03:16;9.63;;;6.93;;
4428;SDS011;2227;47.810;8.810;2022-09-25T20:05:43;7.45;;;6.45;;
4428;SDS011;2227;47.810;8.810;2022-09-25T20:08:10;6.95;;;5.18;;
4428;SDS011;2227;47.810;8.810;2022-09-25T20:10:38;6.03;;;4.68;;
4428;SDS011;2227;47.810;8.810;2022-09-25T20:13:05;5.25;;;4.38;;
4428;SDS011;2227;47.810;8.810;2022-09-25T20:15:31;8.00;;;4.25;;
4428;SDS011;2227;47.810;8.810;2022-09-25T20:17:59;6.03;;;4.13;;
4428;SDS011;2227;47.810;8.810;2022-09-25T20:20:26;5.85;;;3.67;;
4428;SDS011;2227;47.810;8.810;2022-09-25T20:22:54;4.55;;;3.45;;
4428;SDS011;2227;47.810;8.810;2022-09-25T20:25:22;7.47;;;3.25;;
4428;SDS011;2227;47.810;8.810;2022-09-25T20:27:50;5.07;;;3.13;;
4428;SDS011;2227;47.810;8.810;2022-09-25T20:30:20;5.25;;;2.85;;
4428;SDS011;2227;47.810;8.810;2022-09-25T20:32:49;5.40;;;3.70;;
4428;SDS011;2227;47.810;8.810;2022-09-25T20:35:17;4.95;;;3.38;;
4428;SDS011;2227;47.810;8.810;2022-09-25T20:37:44;5.40;;;3.13;;
4428;SDS011;2227;47.810;8.810;2022-09-25T20:40:12;5.15;;;3.58;;
4428;SDS011;2227;47.810;8.810;2022-09-25T20:42:42;5.63;;;3.22;;
4428;SDS011;2227;47.810;8.810;2022-09-25T20:45:09;4.57;;;3.35;;
4428;SDS011;2227;47.810;8.810;2022-09-25T20:47:36;4.47;;;3.30;;
4428;SDS011;2227;47.810;8.810;2022-09-25T20:50:11;5.15;;;3.35;;
4428;SDS011;2227;47.810;8.810;2022-09-25T20:52:37;5.60;;;3.50;;
4428;SDS011;2227;47.810;8.810;2022-09-25T20:55:05;5.35;;;3.28;;
4428;SDS011;2227;47.810;8.810;2022-09-25T20:57:32;4.25;;;2.75;;
4428;SDS011;2227;47.810;8.810;2022-09-25T20:59:59;4.60;;;3.17;;
4428;SDS011;2227;47.810;8.810;2022-09-25T21:02:27;4.57;;;2.85;;
4428;SDS011;2227;47.810;8.810;2022-09-25T21:04:54;4.47;;;3.03;;
4428;SDS011;2227;47.810;8.810;2022-09-25T21:07:22;4.88;;;3.13;;
4428;SDS011;2227;47.810;8.810;2022-09-25T21:09:50;4.93;;;2.70;;
4428;SDS011;2227;47.810;8.810;2022-09-25T21:12:18;4.38;;;2.72;;
4428;SDS011;2227;47.810;8.810;2022-09-25T21:14:46;5.63;;;3.22;;
4428;SDS011;2227;47.810;8.810;2022-09-25T21:17:14;4.53;;;2.70;;
4428;SDS011;2227;47.810;8.810;2022-09-25T21:19:42;4.63;;;3.10;;
4428;SDS011;2227;47.810;8.810;2022-09-25T21:22:08;4.13;;;2.67;;
4428;SDS011;2227;47.810;8.810;2022-09-25T21:24:35;4.93;;;2.90;;
4428;SDS011;2227;47.810;8.810;2022-09-25T21:27:02;6.35;;;3.20;;
4428;SDS011;2227;47.810;8.810;2022-09-25T21:29:29;4.95;;;3.65;;
4428;SDS011;2227;47.810;8.810;2022-09-25T21:31:57;6.13;;;3.67;;
4428;SDS011;2227;47.810;8.810;2022-09-25T21:34:23;4.90;;;3.40;;
4428;SDS011;2227;47.810;8.810;2022-09-25T21:36:51;5.47;;;3.67;;
4428;SDS011;2227;47.810;8.810;2022-09-25T21:39:18;5.22;;;2.95;;
4428;SDS011;2227;47.810;8.810;2022-09-25T21:41:46;4.15;;;3.05;;
4428;SDS011;2227;47.810;8.810;2022-09-25T21:44:14;4.50;;;2.63;;
4428;SDS011;2227;47.810;8.810;2022-09-25T21:46:42;5.28;;;2.55;;
4428;SDS011;2227;47.810;8.810;2022-09-25T21:49:13;4.45;;;2.00;;
4428;SDS011;2227;47.810;8.810;2022-09-25T21:51:45;3.70;;;2.30;;
4428;SDS011;2227;47.810;8.810;2022-09-25T21:54:13;4.82;;;2.17;;
4428;SDS011;2227;47.810;8.810;2022-09-25T21:56:41;4.38;;;2.65;;
4428;SDS011;2227;47.810;8.810;2022-09-25T21:59:09;5.50;;;2.30;;
4428;SDS011;2227;47.810;8.810;2022-09-25T22:01:36;3.38;;;2.05;;
4428;SDS011;2227;47.810;8.810;2022-09-25T22:04:06;3.80;;;2.03;;
4428;SDS011;2227;47.810;8.810;2022-09-25T22:06:36;3.90;;;2.30;;
4428;SDS011;2227;47.810;8.810;2022-09-25T22:09:06;4.55;;;2.38;;
4428;SDS011;2227;47.810;8.810;2022-09-25T22:11:35;3.80;;;2.58;;
4428;SDS011;2227;47.810;8.810;2022-09-25T22:14:02;4.53;;;3.00;;
4428;SDS011;2227;47.810;8.810;2022-09-25T22:16:32;4.40;;;2.72;;
4428;SDS011;2227;47.810;8.810;2022-09-25T22:21:33;5.22;;;3.17;;
4428;SDS011;2227;47.810;8.810;2022-09-25T22:24:01;5.32;;;3.17;;
4428;SDS011;2227;47.810;8.810;2022-09-25T22:26:28;4.10;;;2.83;;
4428;SDS011;2227;47.810;8.810;2022-09-25T22:28:55;4.85;;;3.28;;
4428;SDS011;2227;47.810;8.810;2022-09-25T22:31:23;5.55;;;3.38;;
4428;SDS011;2227;47.810;8.810;2022-09-25T22:33:53;5.65;;;3.80;;
4428;SDS011;2227;47.810;8.810;2022-09-25T22:36:23;5.38;;;3.38;;
4428;SDS011;2227;47.810;8.810;2022-09-25T22:38:52;4.43;;;3.35;;
4428;SDS011;2227;47.810;8.810;2022-09-25T22:41:20;5.05;;;3.67;;
4428;SDS011;2227;47.810;8.810;2022-09-25T22:43:50;5.70;;;3.30;;